To NAV CANADA Home Page Login to a new session Search on AWWS site Disclaimer Vers la page française équivalente Tips FAQ What's new on the site To the Forecasts and Observations / NOTAM section To "File a Flight Plan" website Publications and other links Update of the User's profile FIC Telephone Numbers My Weather Data Folder Route Weather Data Regional Weather Data Local Weather Data To the Forecasts and Observations / NOTAM section
Request Generated 04/24/2019 at 16:22:47 UTC . Weather information available at that time is displayed.

METAR/TAF

WATSON LAKE/YT    

METAR CYQH 241600Z 24016G22KT 40SM SCT051 BKN095 00/M12 A3001 RMK SC3AC3 SLP197=
METAR CYQH 241500Z 26012G17KT 30SM FEW056 FEW100 M01/M11 A3000 RMK SC1AC1 SLP193=
METAR CYQH 241400Z 25013G19KT 30SM SCT055 BKN100 M01/M11 A2999 RMK SC3AC2 SLP188=

TAF CYQH 241138Z 2412/2424 26012KT P6SM SCT040 BKN080
BECMG 2414/2416 28012G22KT
FM242000 28012G22KT P6SM BKN060 TEMPO 2420/2424 4SM -SHSNRA
OVC060
RMK NXT FCST BY 241800Z=
Your time UTC time
Weather data provided by Environment Canada and NAV CANADA